DLH405 KJFK-EDDF
Flight info
| Callsign | DLH405 |
|---|---|
| Flight time | N/A |
| Altitude | 39000 |
| Route | GREKI DCT JUDDS DCT MARTN DCT TOPPS N499A RIKAL/M080F400 DCT 53N050W 55N040W 56N030W 56N020W DCT RESNO DCT NETKI/N0454F390 DCT MORAG DCT NUCHU L607 KONAN UL607 SPI T180 NIVNU T847 IMCOM IMCOM1D |
| Aircraft | A333/H-SDE2E3FGHIJ3J4J5LM1OP2RWXYZ/LB1D1 |
Departure
| Time | 2026-05-09 12:26 |
|---|---|
| Airport | John F. Kennedy International Airport (KJFK) |
Arrival
| Time | N/A |
|---|---|
| Airport | Frankfurt Main Airport (EDDF) |
| Time | Latitude | Longitude | Altitude | Speed | Heading |
|---|---|---|---|---|---|
| 2026-05-09 11:56 | 40.64109 | -73.79205 | 29 ft | 0 kts | 327° |
| 2026-05-09 12:12 | 40.64105 | -73.79201 | 24 ft | 3 kts | 339° |
| 2026-05-09 12:12 | 40.64087 | -73.79188 | 29 ft | 3 kts | 300° |
| 2026-05-09 12:13 | 40.64079 | -73.79165 | 27 ft | 3 kts | 282° |
| 2026-05-09 12:13 | 40.64076 | -73.79140 | 28 ft | 3 kts | 252° |
| 2026-05-09 12:13 | 40.64079 | -73.79129 | 28 ft | 0 kts | 236° |
| 2026-05-09 12:15 | 40.64078 | -73.79131 | 28 ft | 1 kts | 231° |
| 2026-05-09 12:15 | 40.64072 | -73.79139 | 29 ft | 2 kts | 227° |
| 2026-05-09 12:16 | 40.64060 | -73.79156 | 30 ft | 3 kts | 226° |
| 2026-05-09 12:16 | 40.64040 | -73.79181 | 29 ft | 5 kts | 224° |
| 2026-05-09 12:16 | 40.64039 | -73.79183 | 29 ft | 0 kts | 224° |
| 2026-05-09 12:17 | 40.64038 | -73.79184 | 28 ft | 1 kts | 224° |
| 2026-05-09 12:17 | 40.64030 | -73.79194 | 29 ft | 2 kts | 224° |
| 2026-05-09 12:17 | 40.64015 | -73.79213 | 27 ft | 4 kts | 224° |
| 2026-05-09 12:17 | 40.63991 | -73.79244 | 27 ft | 6 kts | 224° |
| 2026-05-09 12:18 | 40.63959 | -73.79284 | 28 ft | 7 kts | 224° |
| 2026-05-09 12:18 | 40.63915 | -73.79300 | 28 ft | 7 kts | 170° |
| 2026-05-09 12:18 | 40.63879 | -73.79264 | 27 ft | 7 kts | 132° |
| 2026-05-09 12:18 | 40.63851 | -73.79210 | 28 ft | 7 kts | 122° |
| 2026-05-09 12:19 | 40.63822 | -73.79151 | 26 ft | 8 kts | 122° |
| 2026-05-09 12:19 | 40.63787 | -73.79076 | 29 ft | 11 kts | 121° |
| 2026-05-09 12:19 | 40.63749 | -73.78986 | 29 ft | 12 kts | 120° |
| 2026-05-09 12:19 | 40.63704 | -73.78890 | 29 ft | 13 kts | 121° |
| 2026-05-09 12:20 | 40.63655 | -73.78781 | 29 ft | 15 kts | 120° |
| 2026-05-09 12:20 | 40.63598 | -73.78655 | 30 ft | 17 kts | 120° |
| 2026-05-09 12:20 | 40.63536 | -73.78518 | 30 ft | 18 kts | 121° |
| 2026-05-09 12:20 | 40.63468 | -73.78367 | 26 ft | 20 kts | 120° |
| 2026-05-09 12:21 | 40.63395 | -73.78204 | 30 ft | 21 kts | 121° |
| 2026-05-09 12:21 | 40.63333 | -73.78035 | 28 ft | 21 kts | 102° |
| 2026-05-09 12:21 | 40.63364 | -73.77848 | 29 ft | 22 kts | 54° |
| 2026-05-09 12:21 | 40.63486 | -73.77724 | 29 ft | 23 kts | 31° |
| 2026-05-09 12:22 | 40.63632 | -73.77609 | 27 ft | 25 kts | 31° |
| 2026-05-09 12:22 | 40.63789 | -73.77486 | 28 ft | 27 kts | 31° |
| 2026-05-09 12:22 | 40.63942 | -73.77366 | 29 ft | 26 kts | 31° |
| 2026-05-09 12:22 | 40.64100 | -73.77242 | 26 ft | 26 kts | 31° |
| 2026-05-09 12:23 | 40.64254 | -73.77121 | 30 ft | 25 kts | 30° |
| 2026-05-09 12:23 | 40.64408 | -73.77008 | 27 ft | 25 kts | 22° |
| 2026-05-09 12:23 | 40.64569 | -73.76941 | 25 ft | 23 kts | 28° |
| 2026-05-09 12:23 | 40.64710 | -73.76835 | 29 ft | 23 kts | 33° |
| 2026-05-09 12:24 | 40.64846 | -73.76723 | 29 ft | 23 kts | 31° |
| 2026-05-09 12:24 | 40.64984 | -73.76615 | 30 ft | 23 kts | 31° |
| 2026-05-09 12:24 | 40.65081 | -73.76530 | 31 ft | 12 kts | 47° |
| 2026-05-09 12:24 | 40.65085 | -73.76445 | 29 ft | 8 kts | 113° |
| 2026-05-09 12:25 | 40.65055 | -73.76388 | 26 ft | 8 kts | 137° |
| 2026-05-09 12:25 | 40.65011 | -73.76376 | 29 ft | 6 kts | 193° |
| 2026-05-09 12:25 | 40.64976 | -73.76394 | 31 ft | 0 kts | 208° |
| 2026-05-09 12:25 | 40.64899 | -73.76450 | 31 ft | 38 kts | 210° |
| 2026-05-09 12:26 | 40.64495 | -73.76770 | 27 ft | 97 kts | 210° |
| 2026-05-09 12:26 | 40.63762 | -73.77342 | 28 ft | 147 kts | 210° |
| 2026-05-09 12:26 | 40.62760 | -73.78134 | 154 ft | 182 kts | 209° |
| 2026-05-09 12:26 | 40.61651 | -73.79012 | 818 ft | 192 kts | 210° |
| 2026-05-09 12:27 | 40.60442 | -73.79904 | 1471 ft | 209 kts | 212° |
| 2026-05-09 12:27 | 40.59152 | -73.80944 | 2112 ft | 222 kts | 214° |
| 2026-05-09 12:27 | 40.57833 | -73.82032 | 2893 ft | 227 kts | 214° |
| 2026-05-09 12:27 | 40.56476 | -73.83143 | 3628 ft | 232 kts | 214° |
| 2026-05-09 12:28 | 40.55109 | -73.84260 | 4363 ft | 237 kts | 214° |
| 2026-05-09 12:28 | 40.53739 | -73.85473 | 4845 ft | 239 kts | 221° |
| 2026-05-09 12:28 | 40.52609 | -73.87061 | 4988 ft | 239 kts | 236° |
| 2026-05-09 12:28 | 40.51968 | -73.89067 | 4996 ft | 241 kts | 257° |
| 2026-05-09 12:29 | 40.52026 | -73.91280 | 4992 ft | 249 kts | 281° |
| 2026-05-09 12:29 | 40.52866 | -73.93301 | 4995 ft | 261 kts | 307° |
| 2026-05-09 12:29 | 40.54400 | -73.94639 | 4994 ft | 274 kts | 335° |
| 2026-05-09 12:29 | 40.56329 | -73.94857 | 4996 ft | 287 kts | 5° |
| 2026-05-09 12:30 | 40.58272 | -73.94135 | 5000 ft | 293 kts | 19° |
| 2026-05-09 12:30 | 40.60122 | -73.92992 | 5058 ft | 295 kts | 26° |
| 2026-05-09 12:30 | 40.63687 | -73.90267 | 6254 ft | 302 kts | 29° |
| 2026-05-09 12:31 | 40.65515 | -73.88865 | 7055 ft | 306 kts | 27° |
| 2026-05-09 12:31 | 40.69287 | -73.86123 | 8617 ft | 313 kts | 25° |
| 2026-05-09 12:31 | 40.71224 | -73.84773 | 9384 ft | 317 kts | 25° |
| 2026-05-09 12:32 | 40.73196 | -73.83418 | 10126 ft | 322 kts | 25° |
| 2026-05-09 12:32 | 40.75233 | -73.82029 | 10503 ft | 339 kts | 24° |
| 2026-05-09 12:32 | 40.77390 | -73.80562 | 10780 ft | 358 kts | 24° |
| 2026-05-09 12:32 | 40.79652 | -73.79019 | 11153 ft | 373 kts | 24° |
| 2026-05-09 12:33 | 40.81976 | -73.77425 | 11741 ft | 379 kts | 24° |
| 2026-05-09 12:33 | 40.84294 | -73.75827 | 12469 ft | 382 kts | 24° |
| 2026-05-09 12:33 | 40.86652 | -73.74198 | 13245 ft | 383 kts | 24° |
| 2026-05-09 12:33 | 40.89017 | -73.72562 | 13966 ft | 385 kts | 24° |
| 2026-05-09 12:34 | 40.91406 | -73.70910 | 14549 ft | 390 kts | 23° |
| 2026-05-09 12:34 | 40.93828 | -73.69237 | 15113 ft | 395 kts | 23° |
| 2026-05-09 12:34 | 40.96271 | -73.67548 | 15728 ft | 399 kts | 23° |
| 2026-05-09 12:34 | 40.98747 | -73.65836 | 16350 ft | 403 kts | 22° |
| 2026-05-09 12:35 | 41.01247 | -73.64106 | 16972 ft | 408 kts | 22° |
| 2026-05-09 12:35 | 41.03769 | -73.62359 | 17587 ft | 411 kts | 22° |
| 2026-05-09 12:35 | 41.06277 | -73.60484 | 18142 ft | 420 kts | 29° |
| 2026-05-09 12:35 | 41.08600 | -73.58147 | 18625 ft | 427 kts | 34° |
| 2026-05-09 12:36 | 41.10908 | -73.55553 | 19090 ft | 433 kts | 37° |
| 2026-05-09 12:36 | 41.13127 | -73.52883 | 19567 ft | 438 kts | 38° |
| 2026-05-09 12:36 | 41.15354 | -73.50104 | 20048 ft | 442 kts | 38° |
| 2026-05-09 12:36 | 41.17589 | -73.47276 | 20527 ft | 445 kts | 38° |
| 2026-05-09 12:37 | 41.19839 | -73.44424 | 20985 ft | 449 kts | 38° |
| 2026-05-09 12:37 | 41.22108 | -73.41559 | 21456 ft | 453 kts | 38° |
| 2026-05-09 12:37 | 41.24405 | -73.38670 | 21919 ft | 456 kts | 38° |
| 2026-05-09 12:37 | 41.26721 | -73.35766 | 22366 ft | 460 kts | 37° |
| 2026-05-09 12:38 | 41.29062 | -73.32836 | 22807 ft | 464 kts | 37° |
| 2026-05-09 12:38 | 41.31388 | -73.29926 | 23226 ft | 467 kts | 37° |
| 2026-05-09 12:38 | 41.33756 | -73.26959 | 23674 ft | 470 kts | 37° |
| 2026-05-09 12:38 | 41.36141 | -73.23968 | 24072 ft | 472 kts | 37° |
| 2026-05-09 12:39 | 41.38531 | -73.20965 | 24510 ft | 473 kts | 36° |
| 2026-05-09 12:39 | 41.40927 | -73.17948 | 24937 ft | 474 kts | 36° |
| 2026-05-09 12:39 | 41.43328 | -73.14926 | 25308 ft | 476 kts | 36° |
| 2026-05-09 12:39 | 41.45746 | -73.11884 | 25700 ft | 479 kts | 36° |
| 2026-05-09 12:40 | 41.48171 | -73.08829 | 26060 ft | 481 kts | 36° |
| 2026-05-09 12:40 | 41.50609 | -73.05754 | 26429 ft | 483 kts | 36° |
| 2026-05-09 12:40 | 41.53057 | -73.02659 | 26805 ft | 485 kts | 36° |
| 2026-05-09 12:40 | 41.55480 | -72.99594 | 27166 ft | 488 kts | 36° |
| 2026-05-09 12:41 | 41.57944 | -72.96474 | 27532 ft | 490 kts | 36° |
| 2026-05-09 12:41 | 41.60424 | -72.93330 | 27891 ft | 492 kts | 36° |
| 2026-05-09 12:41 | 41.62902 | -72.90181 | 28267 ft | 493 kts | 36° |
| 2026-05-09 12:41 | 41.65394 | -72.87015 | 28619 ft | 496 kts | 36° |
| 2026-05-09 12:42 | 41.67902 | -72.83824 | 28963 ft | 498 kts | 36° |
| 2026-05-09 12:42 | 41.70412 | -72.80626 | 29325 ft | 500 kts | 36° |
| 2026-05-09 12:42 | 41.72934 | -72.77412 | 29665 ft | 503 kts | 36° |
| 2026-05-09 12:42 | 41.75474 | -72.74170 | 29962 ft | 506 kts | 36° |
| 2026-05-09 12:43 | 41.78028 | -72.70907 | 30254 ft | 508 kts | 36° |
| 2026-05-09 12:43 | 41.80551 | -72.67678 | 30569 ft | 509 kts | 36° |
| 2026-05-09 12:43 | 41.83114 | -72.64392 | 30880 ft | 510 kts | 36° |
| 2026-05-09 12:43 | 41.85687 | -72.61090 | 31192 ft | 512 kts | 36° |
| 2026-05-09 12:44 | 41.88257 | -72.57789 | 31511 ft | 512 kts | 36° |
| 2026-05-09 12:44 | 41.90830 | -72.54479 | 31898 ft | 512 kts | 36° |
| 2026-05-09 12:44 | 41.93401 | -72.51167 | 32315 ft | 511 kts | 36° |
| 2026-05-09 12:44 | 41.95955 | -72.47871 | 32779 ft | 508 kts | 35° |
| 2026-05-09 12:45 | 41.98496 | -72.44587 | 33247 ft | 505 kts | 35° |
| 2026-05-09 12:45 | 42.01020 | -72.41324 | 33677 ft | 503 kts | 35° |
| 2026-05-09 12:45 | 42.03535 | -72.38070 | 34096 ft | 501 kts | 35° |
| 2026-05-09 12:45 | 42.06047 | -72.34819 | 34374 ft | 501 kts | 35° |
| 2026-05-09 12:46 | 42.11061 | -72.28329 | 34719 ft | 506 kts | 35° |
| 2026-05-09 12:46 | 42.13602 | -72.25032 | 34913 ft | 507 kts | 35° |
| 2026-05-09 12:46 | 42.16136 | -72.21737 | 35171 ft | 507 kts | 36° |
| 2026-05-09 12:47 | 42.18675 | -72.18430 | 35377 ft | 508 kts | 36° |
| 2026-05-09 12:47 | 42.21218 | -72.15114 | 35560 ft | 510 kts | 36° |
| 2026-05-09 12:47 | 42.23771 | -72.11783 | 35783 ft | 511 kts | 36° |
| 2026-05-09 12:47 | 42.26323 | -72.08448 | 35971 ft | 512 kts | 36° |
| 2026-05-09 12:48 | 42.28885 | -72.05096 | 36147 ft | 513 kts | 36° |
| 2026-05-09 12:48 | 42.31456 | -72.01729 | 36328 ft | 515 kts | 36° |
| 2026-05-09 12:48 | 42.34025 | -71.98358 | 36513 ft | 516 kts | 36° |
| 2026-05-09 12:48 | 42.36563 | -71.95026 | 36699 ft | 517 kts | 37° |
| 2026-05-09 12:49 | 42.39142 | -71.91636 | 36907 ft | 518 kts | 37° |
| 2026-05-09 12:49 | 42.41717 | -71.88244 | 37169 ft | 516 kts | 37° |
| 2026-05-09 12:49 | 42.44289 | -71.84851 | 37393 ft | 516 kts | 37° |
| 2026-05-09 12:49 | 42.46863 | -71.81455 | 37531 ft | 518 kts | 37° |
| 2026-05-09 12:50 | 42.49448 | -71.78042 | 37705 ft | 519 kts | 37° |
| 2026-05-09 12:50 | 42.52028 | -71.74630 | 37863 ft | 520 kts | 37° |
| 2026-05-09 12:50 | 42.54618 | -71.71201 | 38020 ft | 521 kts | 37° |
| 2026-05-09 12:50 | 42.57210 | -71.67763 | 38243 ft | 520 kts | 38° |
| 2026-05-09 12:51 | 42.59793 | -71.64333 | 38460 ft | 520 kts | 38° |
| 2026-05-09 12:51 | 42.62380 | -71.60894 | 38592 ft | 521 kts | 38° |
| 2026-05-09 12:51 | 42.64940 | -71.57487 | 38740 ft | 522 kts | 38° |
| 2026-05-09 12:51 | 42.67536 | -71.54028 | 38881 ft | 522 kts | 38° |
| 2026-05-09 12:52 | 42.70124 | -71.50575 | 39015 ft | 522 kts | 38° |
| 2026-05-09 12:52 | 42.75314 | -71.43639 | 39054 ft | 523 kts | 38° |
| 2026-05-09 12:53 | 42.80488 | -71.36703 | 39054 ft | 522 kts | 38° |
| 2026-05-09 12:53 | 42.84782 | -71.30937 | 39054 ft | 522 kts | 39° |
| 2026-05-09 12:54 | 42.90782 | -71.22859 | 39059 ft | 522 kts | 39° |
| 2026-05-09 12:54 | 42.95941 | -71.15896 | 39052 ft | 521 kts | 39° |
| 2026-05-09 12:55 | 43.01093 | -71.08925 | 39045 ft | 522 kts | 39° |
| 2026-05-09 12:55 | 43.05376 | -71.03117 | 39048 ft | 522 kts | 39° |
| 2026-05-09 12:56 | 43.10522 | -70.96121 | 39045 ft | 522 kts | 39° |
| 2026-05-09 12:56 | 43.16502 | -70.87969 | 39043 ft | 522 kts | 40° |
| 2026-05-09 12:57 | 43.20809 | -70.82082 | 39035 ft | 522 kts | 40° |
| 2026-05-09 12:57 | 43.25912 | -70.75091 | 39035 ft | 522 kts | 40° |
| 2026-05-09 12:58 | 43.31043 | -70.68045 | 39053 ft | 522 kts | 40° |
| 2026-05-09 12:58 | 43.36168 | -70.60991 | 39057 ft | 521 kts | 40° |
| 2026-05-09 12:59 | 43.41281 | -70.53933 | 39046 ft | 521 kts | 40° |
| 2026-05-09 12:59 | 43.46395 | -70.46857 | 39053 ft | 521 kts | 40° |
| 2026-05-09 13:00 | 43.51464 | -70.39825 | 39036 ft | 520 kts | 41° |
| 2026-05-09 13:00 | 43.56549 | -70.32752 | 39051 ft | 519 kts | 41° |
| 2026-05-09 13:01 | 43.61630 | -70.25667 | 39049 ft | 519 kts | 41° |
| 2026-05-09 13:01 | 43.66703 | -70.18577 | 39058 ft | 518 kts | 41° |
| 2026-05-09 13:02 | 43.71722 | -70.11541 | 39051 ft | 517 kts | 41° |
| 2026-05-09 13:02 | 43.76764 | -70.04458 | 39068 ft | 517 kts | 41° |
| 2026-05-09 13:03 | 43.81804 | -69.97361 | 39080 ft | 517 kts | 41° |
| 2026-05-09 13:03 | 43.86832 | -69.90259 | 39072 ft | 516 kts | 41° |
| 2026-05-09 13:04 | 43.91848 | -69.83158 | 39070 ft | 515 kts | 41° |
| 2026-05-09 13:04 | 43.96831 | -69.76086 | 39077 ft | 516 kts | 41° |
| 2026-05-09 13:05 | 44.01833 | -69.68966 | 39064 ft | 514 kts | 42° |
| 2026-05-09 13:05 | 44.06822 | -69.61848 | 39061 ft | 514 kts | 42° |
| 2026-05-09 13:06 | 44.11812 | -69.54712 | 39074 ft | 514 kts | 42° |
| 2026-05-09 13:06 | 44.16794 | -69.47566 | 39051 ft | 514 kts | 42° |
| 2026-05-09 13:07 | 44.21763 | -69.40422 | 39043 ft | 513 kts | 42° |
| 2026-05-09 13:07 | 44.26698 | -69.33309 | 39059 ft | 514 kts | 42° |
| 2026-05-09 13:08 | 44.31661 | -69.26136 | 39040 ft | 513 kts | 42° |
| 2026-05-09 13:08 | 44.36614 | -69.18960 | 39039 ft | 513 kts | 42° |
| 2026-05-09 13:09 | 44.41560 | -69.11774 | 39036 ft | 513 kts | 42° |
| 2026-05-09 13:09 | 44.46470 | -69.04623 | 39039 ft | 512 kts | 43° |
| 2026-05-09 13:10 | 44.51399 | -68.97423 | 39042 ft | 512 kts | 43° |
| 2026-05-09 13:10 | 44.56327 | -68.90209 | 39052 ft | 512 kts | 43° |
| 2026-05-09 13:11 | 44.61243 | -68.82992 | 39056 ft | 511 kts | 43° |
| 2026-05-09 13:11 | 44.66152 | -68.75767 | 39060 ft | 511 kts | 43° |
| 2026-05-09 13:12 | 44.71023 | -68.68578 | 39059 ft | 512 kts | 43° |
| 2026-05-09 13:12 | 44.75927 | -68.61322 | 39057 ft | 512 kts | 43° |
| 2026-05-09 13:13 | 44.80829 | -68.54052 | 39060 ft | 512 kts | 43° |
| 2026-05-09 13:13 | 44.85725 | -68.46769 | 39058 ft | 512 kts | 43° |
| 2026-05-09 13:14 | 44.90618 | -68.39473 | 39063 ft | 512 kts | 43° |
| 2026-05-09 13:16 | 45.10088 | -68.10242 | 39041 ft | 511 kts | 44° |
| 2026-05-09 13:16 | 45.14952 | -68.02891 | 39036 ft | 511 kts | 44° |
| 2026-05-09 13:17 | 45.19806 | -67.95535 | 39049 ft | 511 kts | 44° |
| 2026-05-09 13:17 | 45.24655 | -67.88169 | 39040 ft | 511 kts | 44° |
| 2026-05-09 13:18 | 45.28675 | -67.82045 | 39030 ft | 510 kts | 44° |